Time;durP1;ratioP1;P1;durP2;ratioP2;P2;SDS_P1;SDS_P2;PMS_P1;PMS_P2;Temp;Humidity;BMP_temperature;BMP_pressure;BME280_temperature;BME280_humidity;BME280_pressure;Samples;Min_cycle;Max_cycle;Signal;HPM_P1;HPM_P2
2021/12/20 00:00:57;;;;;;;;;;;;;;;12.87;56.08;101208.75;4979103;28;128752;-61
2021/12/20 00:03:22;;;;;;;;;;;;;;;12.85;55.89;101208.22;4988305;27;119310;-70
2021/12/20 00:05:48;;;;;;;;;;;;;;;12.84;56.07;101201.16;4972617;28;127763;-60
2021/12/20 00:08:14;;;;;;;;;;;;;;;12.82;56.12;101192.53;4966719;28;115265;-60
2021/12/20 00:10:40;;;;;;;;;;;;;;;12.81;55.93;101199.03;4966430;28;127480;-70
2021/12/20 00:13:06;;;;;;;;;;;;;;;12.80;55.96;101199.25;4974977;27;122872;-70
2021/12/20 00:15:32;;;;;;;;;;;;;;;12.77;55.87;101196.03;4967275;28;126320;-69
2021/12/20 00:17:58;;;;;;;;;;;;;;;12.77;55.67;101198.72;4982050;28;117571;-60
2021/12/20 00:20:24;;;;;;;;;;;;;;;12.76;55.72;101191.66;4965915;28;99281;-60
2021/12/20 00:22:50;;;;;;;;;;;;;;;12.75;55.68;101191.94;4967481;28;127938;-69
2021/12/20 00:25:16;;;;;;;;;;;;;;;12.73;55.82;101196.78;4963054;28;124334;-70
2021/12/20 00:27:42;;;;;;;;;;;;;;;12.71;55.60;101202.47;4966854;28;120000;-60
2021/12/20 00:30:09;;;;;;;;;;;;;;;12.70;55.67;101202.75;4983213;27;127363;-60
2021/12/20 00:32:34;;;;;;;;;;;;;;;12.69;55.67;101203.81;4984616;27;121648;-70
2021/12/20 00:35:01;;;;;;;;;;;;;;;12.67;55.73;101201.38;4981889;28;127568;-60
2021/12/20 00:40:23;;;;;;;;;;;;;;;12.65;55.65;101194.59;4984774;27;97820;-70
2021/12/20 00:42:54;;;;;;;;;;;;;;;12.62;55.61;101195.94;4987894;28;98838;-70
2021/12/20 00:45:21;;;;;;;;;;;;;;;12.62;55.48;101197.84;4984044;27;98183;-60
2021/12/20 00:47:47;;;;;;;;;;;;;;;12.61;55.36;101202.41;4984995;28;97872;-60
2021/12/20 00:50:16;;;;;;;;;;;;;;;12.60;55.43;101202.69;4980585;27;128012;-68
2021/12/20 00:52:45;;;;;;;;;;;;;;;12.58;55.30;101205.66;4984201;28;119307;-70
2021/12/20 00:55:12;;;;;;;;;;;;;;;12.56;55.28;101207.81;4965426;27;116515;-69
2021/12/20 00:57:38;;;;;;;;;;;;;;;12.56;55.32;101212.41;4967695;28;98235;-69
2021/12/20 01:00:05;;;;;;;;;;;;;;;12.54;55.38;101223.50;4966021;28;128351;-60
2021/12/20 01:02:31;;;;;;;;;;;;;;;12.53;55.39;101216.44;4966108;28;98088;-60
2021/12/20 01:04:58;;;;;;;;;;;;;;;12.52;55.36;101236.44;5004683;27;127875;-60
2021/12/20 01:07:24;;;;;;;;;;;;;;;12.51;55.26;101229.41;4983240;27;97979;-70
2021/12/20 01:09:49;;;;;;;;;;;;;;;12.49;55.32;101236.97;4966255;28;128264;-61
2021/12/20 01:12:19;;;;;;;;;;;;;;;12.48;55.25;101222.63;4964760;28;102130;-60
2021/12/20 01:14:45;;;;;;;;;;;;;;;12.47;55.17;101229.13;4996190;27;98191;-61
2021/12/20 01:17:11;;;;;;;;;;;;;;;12.46;55.15;101226.69;4998241;27;98007;-70
2021/12/20 01:19:37;;;;;;;;;;;;;;;12.43;55.07;101214.50;4980854;28;128743;-60
2021/12/20 01:22:04;;;;;;;;;;;;;;;12.41;55.11;101218.53;4965712;28;121519;-69
2021/12/20 01:24:30;;;;;;;;;;;;;;;12.41;55.08;101223.94;4966939;28;97804;-70
2021/12/20 01:26:56;;;;;;;;;;;;;;;12.40;55.11;101236.66;4980784;28;117103;-60
2021/12/20 01:29:22;;;;;;;;;;;;;;;12.39;55.04;101234.22;4981403;27;127909;-60
2021/12/20 01:31:48;;;;;;;;;;;;;;;12.37;55.07;101234.47;4965282;28;98470;-70
2021/12/20 01:34:14;;;;;;;;;;;;;;;12.36;55.05;101230.13;4966629;28;97863;-60
2021/12/20 01:36:40;;;;;;;;;;;;;;;12.35;55.04;101230.41;4965564;28;118787;-70
2021/12/20 01:39:06;;;;;;;;;;;;;;;12.34;55.04;101224.19;4982054;27;127994;-69
2021/12/20 01:41:32;;;;;;;;;;;;;;;12.33;55.02;101233.34;4981904;28;98940;-60
2021/12/20 01:43:58;;;;;;;;;;;;;;;12.32;54.74;101237.13;4983692;28;99883;-70
2021/12/20 01:46:25;;;;;;;;;;;;;;;12.31;54.95;101245.53;4974697;27;97731;-60
2021/12/20 01:48:50;;;;;;;;;;;;;;;12.30;54.79;101247.41;4964628;28;98448;-61
2021/12/20 01:53:42;;;;;;;;;;;;;;;12.27;54.90;101240.63;4981841;27;115386;-61
2021/12/20 01:56:09;;;;;;;;;;;;;;;12.26;54.78;101251.69;4947009;28;116781;-70
2021/12/20 01:58:34;;;;;;;;;;;;;;;12.26;54.91;101254.38;4980224;27;98262;-60
2021/12/20 02:03:42;;;;;;;;;;;;;;;12.23;54.69;101242.22;4966911;28;98206;-61
2021/12/20 02:06:24;;;;;;;;;;;;;;;12.22;54.71;101239.75;4980912;28;97828;-70
2021/12/20 02:08:50;;;;;;;;;;;;;;;12.20;54.64;101240.03;4983515;27;98819;-70
2021/12/20 02:11:17;;;;;;;;;;;;;;;12.20;54.57;101247.31;4984979;28;127426;-60
2021/12/20 02:13:43;;;;;;;;;;;;;;;12.19;54.57;101251.13;4956011;28;117282;-70
2021/12/20 02:16:09;;;;;;;;;;;;;;;12.18;54.64;101249.47;4964215;28;116444;-61
2021/12/20 02:18:35;;;;;;;;;;;;;;;12.16;54.54;101244.31;4965572;28;98884;-70
2021/12/20 02:21:01;;;;;;;;;;;;;;;12.16;54.45;101255.13;4979596;27;99933;-70
2021/12/20 02:23:27;;;;;;;;;;;;;;;12.14;54.42;101251.88;4980582;28;126020;-70
2021/12/20 02:25:53;;;;;;;;;;;;;;;12.14;54.45;101256.44;4977722;28;117688;-69
2021/12/20 02:28:20;;;;;;;;;;;;;;;12.12;54.67;101253.22;4986844;28;103538;-70
2021/12/20 02:38:46;;;;;;;;;;;;;;;12.07;54.35;101267.50;4982905;27;98450;-60
2021/12/20 02:41:15;;;;;;;;;;;;;;;12.04;54.44;101263.41;4981720;28;112142;-60
2021/12/20 02:43:43;;;;;;;;;;;;;;;12.03;54.38;101269.91;4972302;28;98858;-69
2021/12/20 02:46:49;;;;;;;;;;;;;;;12.03;54.30;101271.78;4983433;28;97917;-60
2021/12/20 02:49:22;;;;;;;;;;;;;;;12.01;54.27;101273.91;4984985;27;99414;-60
2021/12/20 02:51:50;;;;;;;;;;;;;;;11.99;54.19;101274.19;4975954;28;98527;-70
2021/12/20 02:54:16;;;;;;;;;;;;;;;11.98;54.11;101272.53;4999251;27;98246;-69
2021/12/20 02:56:42;;;;;;;;;;;;;;;11.97;54.23;101265.50;4967869;28;109564;-69
2021/12/20 02:59:08;;;;;;;;;;;;;;;11.97;53.99;101262.00;4968795;28;98173;-60
2021/12/20 03:01:35;;;;;;;;;;;;;;;11.94;54.20;101266.03;4965153;28;98456;-70
2021/12/20 03:04:01;;;;;;;;;;;;;;;11.93;54.15;101272.50;4997826;27;99787;-70
2021/12/20 03:06:37;;;;;;;;;;;;;;;11.93;54.14;101274.41;4966784;28;97879;-69
2021/12/20 03:09:04;;;;;;;;;;;;;;;11.89;54.06;101276.78;4968295;28;98750;-69
2021/12/20 03:11:29;;;;;;;;;;;;;;;11.89;54.20;101284.91;4988864;28;98852;-60
2021/12/20 03:14:07;;;;;;;;;;;;;;;11.88;53.91;101296.78;4987051;27;127605;-68
2021/12/20 03:16:34;;;;;;;;;;;;;;;11.87;53.84;101295.16;4987582;27;97813;-70
2021/12/20 03:19:01;;;;;;;;;;;;;;;11.86;54.00;101292.69;4965646;28;99833;-60
2021/12/20 03:21:26;;;;;;;;;;;;;;;11.84;53.92;101298.38;4968936;28;110517;-69
2021/12/20 03:23:52;;;;;;;;;;;;;;;11.83;53.88;101298.56;4970857;28;113200;-69
2021/12/20 03:26:18;;;;;;;;;;;;;;;11.83;53.77;101295.88;4966759;28;117037;-70
2021/12/20 03:28:44;;;;;;;;;;;;;;;11.81;53.57;101301.53;4966030;28;127952;-60
2021/12/20 03:31:12;;;;;;;;;;;;;;;11.79;53.89;101301.00;4966770;28;127859;-69
2021/12/20 03:33:38;;;;;;;;;;;;;;;11.78;54.03;101308.25;4966579;28;98072;-60
2021/12/20 03:36:04;;;;;;;;;;;;;;;11.77;53.77;101301.22;4965103;28;97823;-60
2021/12/20 03:38:30;;;;;;;;;;;;;;;11.77;53.58;101305.81;4979931;27;118570;-60
2021/12/20 03:40:56;;;;;;;;;;;;;;;11.76;53.94;101309.59;4971757;28;107944;-60
2021/12/20 03:43:24;;;;;;;;;;;;;;;11.74;53.98;101303.63;4965881;28;128404;-69
2021/12/20 03:45:56;;;;;;;;;;;;;;;11.73;53.76;101313.63;4974380;28;97721;-70
2021/12/20 03:48:22;;;;;;;;;;;;;;;11.72;53.61;101308.47;4989352;27;98949;-60
2021/12/20 03:50:48;;;;;;;;;;;;;;;11.70;53.72;101302.50;4987185;27;127329;-69
2021/12/20 03:53:14;;;;;;;;;;;;;;;11.68;53.87;101297.38;4983599;27;127306;-69
2021/12/20 03:55:40;;;;;;;;;;;;;;;11.66;53.77;101304.91;4987281;27;107631;-68
2021/12/20 03:58:09;;;;;;;;;;;;;;;11.67;53.61;101316.50;4984861;27;128131;-60
2021/12/20 04:00:35;;;;;;;;;;;;;;;11.66;53.47;101320.28;4986674;28;124745;-60
2021/12/20 04:03:07;;;;;;;;;;;;;;;11.63;53.69;101318.94;4987154;27;126966;-69
2021/12/20 04:05:33;;;;;;;;;;;;;;;11.64;53.84;101319.75;4969336;27;97670;-61
2021/12/20 04:07:59;;;;;;;;;;;;;;;11.63;53.38;101318.09;4965604;28;107934;-70
2021/12/20 04:10:25;;;;;;;;;;;;;;;11.61;53.70;101306.72;4974906;28;127276;-69
2021/12/20 04:12:51;;;;;;;;;;;;;;;11.59;53.41;101315.06;4983390;27;117531;-60
2021/12/20 04:15:17;;;;;;;;;;;;;;;11.58;53.34;101315.34;4987067;27;118120;-69
2021/12/20 04:17:43;;;;;;;;;;;;;;;11.57;53.53;101322.63;4988266;28;120839;-60
2021/12/20 04:20:09;;;;;;;;;;;;;;;11.58;53.38;101328.84;4968689;27;128313;-61
2021/12/20 04:22:35;;;;;;;;;;;;;;;11.55;53.20;101311.25;4967496;28;119309;-60
2021/12/20 04:25:01;;;;;;;;;;;;;;;11.55;53.61;101313.94;4966965;28;116883;-70
2021/12/20 04:27:26;;;;;;;;;;;;;;;11.54;53.22;101309.63;4967557;28;127843;-60
2021/12/20 04:29:54;;;;;;;;;;;;;;;11.53;53.38;101311.50;4965592;28;124893;-69
2021/12/20 04:32:20;;;;;;;;;;;;;;;11.52;53.57;101312.59;4973402;27;98317;-70
2021/12/20 04:34:46;;;;;;;;;;;;;;;11.51;53.06;101324.47;4983506;28;115192;-70
2021/12/20 04:37:12;;;;;;;;;;;;;;;11.50;53.28;101316.59;4985872;28;127081;-69
2021/12/20 04:39:38;;;;;;;;;;;;;;;11.50;53.10;101312.00;4985915;27;127585;-68
2021/12/20 04:42:04;;;;;;;;;;;;;;;11.48;53.08;101303.38;4968671;27;97761;-60
2021/12/20 04:44:30;;;;;;;;;;;;;;;11.48;53.52;101295.25;4976338;27;97922;-61
2021/12/20 04:46:56;;;;;;;;;;;;;;;11.47;53.36;101301.72;4966275;28;127846;-61
2021/12/20 04:49:24;;;;;;;;;;;;;;;11.45;53.15;101295.75;4979159;27;98043;-60
2021/12/20 04:51:52;;;;;;;;;;;;;;;11.46;53.32;101307.38;4984935;27;98251;-60
2021/12/20 04:54:18;;;;;;;;;;;;;;;11.44;53.12;101302.25;4983683;28;97929;-69
2021/12/20 04:56:44;;;;;;;;;;;;;;;11.44;53.00;101312.22;4969491;28;119256;-70
2021/12/20 04:59:10;;;;;;;;;;;;;;;11.43;53.38;101315.97;4967311;28;101404;-60
2021/12/20 05:01:36;;;;;;;;;;;;;;;11.40;53.09;101314.63;4965745;28;127815;-70
2021/12/20 05:04:02;;;;;;;;;;;;;;;11.41;53.37;101315.44;4965383;28;117687;-70
2021/12/20 05:06:30;;;;;;;;;;;;;;;11.39;53.14;101307.56;4999484;27;127811;-70
2021/12/20 05:08:56;;;;;;;;;;;;;;;11.39;53.19;101321.06;4980459;27;98113;-70
2021/12/20 05:11:23;;;;;;;;;;;;;;;11.37;53.17;101325.91;4987275;27;97935;-61
2021/12/20 05:13:49;;;;;;;;;;;;;;;11.37;53.43;101327.78;4965464;28;98041;-68
2021/12/20 05:16:14;;;;;;;;;;;;;;;11.37;53.12;101333.19;4968123;28;98375;-70
2021/12/20 05:18:40;;;;;;;;;;;;;;;11.36;52.98;101336.94;4964673;28;117887;-60
2021/12/20 05:21:06;;;;;;;;;;;;;;;11.35;53.18;101335.31;4965319;28;127587;-69
2021/12/20 05:23:32;;;;;;;;;;;;;;;11.34;53.24;101333.69;4965546;28;104557;-62
2021/12/20 05:25:58;;;;;;;;;;;;;;;11.34;52.76;101331.00;4964429;28;128581;-70
2021/12/20 05:28:24;;;;;;;;;;;;;;;11.34;53.26;101337.19;4965607;28;97904;-70
2021/12/20 05:30:52;;;;;;;;;;;;;;;11.32;52.91;101333.94;4984550;27;97808;-69
2021/12/20 05:33:21;;;;;;;;;;;;;;;11.32;53.10;101342.06;4987697;27;97977;-70
2021/12/20 05:35:47;;;;;;;;;;;;;;;11.30;53.35;101355.78;4978351;28;98507;-61
2021/12/20 05:38:13;;;;;;;;;;;;;;;11.29;52.94;101348.75;4968649;28;122428;-61
2021/12/20 05:40:39;;;;;;;;;;;;;;;11.30;52.93;101347.69;4984713;28;108261;-70
2021/12/20 05:43:05;;;;;;;;;;;;;;;11.29;52.75;101350.66;4987544;28;116876;-70
2021/12/20 05:45:31;;;;;;;;;;;;;;;11.27;53.19;101348.19;4987091;27;125343;-69
2021/12/20 05:47:57;;;;;;;;;;;;;;;11.29;52.87;101364.13;4969740;28;98258;-69
2021/12/20 05:50:23;;;;;;;;;;;;;;;11.27;52.91;101358.16;4969259;28;128494;-69
2021/12/20 05:52:49;;;;;;;;;;;;;;;11.26;52.94;101356.53;4968934;28;111152;-69
2021/12/20 05:55:15;;;;;;;;;;;;;;;11.25;52.81;101353.03;4968493;28;98066;-69
2021/12/20 05:57:41;;;;;;;;;;;;;;;11.24;53.29;101351.41;4967614;28;126863;-70
2021/12/20 06:00:15;;;;;;;;;;;;;;;11.24;53.08;101364.09;4983123;27;126910;-70
2021/12/20 06:02:42;;;;;;;;;;;;;;;11.23;52.62;101363.25;4970742;28;97852;-70
2021/12/20 06:05:08;;;;;;;;;;;;;;;11.22;53.07;101361.63;4984568;27;99076;-70
2021/12/20 06:07:38;;;;;;;;;;;;;;;11.21;52.57;101368.09;4989399;28;111161;-70
2021/12/20 06:10:05;;;;;;;;;;;;;;;11.21;53.03;101364.56;4983549;28;98686;-70
2021/12/20 06:12:31;;;;;;;;;;;;;;;11.20;52.81;101369.16;4984137;28;113771;-69
2021/12/20 06:14:56;;;;;;;;;;;;;;;11.19;52.67;101375.59;4987907;28;128650;-70
2021/12/20 06:17:22;;;;;;;;;;;;;;;11.18;52.97;101368.56;4988996;28;127684;-69
2021/12/20 06:19:51;;;;;;;;;;;;;;;11.19;52.78;101374.78;4987678;28;125242;-69
2021/12/20 06:22:17;;;;;;;;;;;;;;;11.18;52.68;101389.34;4989692;27;116314;-69
2021/12/20 06:24:43;;;;;;;;;;;;;;;11.17;52.60;101380.44;4991622;27;128017;-69
2021/12/20 06:27:09;;;;;;;;;;;;;;;11.15;52.90;101390.66;4976310;28;127168;-70
2021/12/20 06:29:35;;;;;;;;;;;;;;;11.15;52.83;101385.25;4973953;28;119519;-70
2021/12/20 06:32:01;;;;;;;;;;;;;;;11.14;52.82;101383.63;4989441;28;98957;-69
2021/12/20 06:34:27;;;;;;;;;;;;;;;11.13;52.67;101392.00;4985972;27;119001;-69
2021/12/20 06:36:53;;;;;;;;;;;;;;;11.13;52.80;101394.69;4991506;28;118523;-70
2021/12/20 06:39:19;;;;;;;;;;;;;;;11.11;52.86;101394.91;4990954;27;126109;-69
2021/12/20 06:41:45;;;;;;;;;;;;;;;11.12;52.62;101409.22;4991244;27;117775;-69
2021/12/20 06:44:10;;;;;;;;;;;;;;;11.11;53.02;101415.69;4991506;27;97960;-69
2021/12/20 06:46:37;;;;;;;;;;;;;;;11.10;52.58;101411.38;4991565;28;113771;-69
2021/12/20 06:49:05;;;;;;;;;;;;;;;11.10;53.07;101412.19;4986655;27;98575;-69
2021/12/20 06:51:34;;;;;;;;;;;;;;;11.10;52.58;101414.06;4969911;28;97936;-70
2021/12/20 06:54:00;;;;;;;;;;;;;;;11.09;52.45;101409.75;4971843;28;98003;-69
2021/12/20 06:56:26;;;;;;;;;;;;;;;11.09;52.66;101415.94;4970186;28;118432;-70
2021/12/20 06:58:54;;;;;;;;;;;;;;;11.09;52.40;101418.66;4968295;28;127511;-70
2021/12/20 07:01:20;;;;;;;;;;;;;;;11.10;52.75;101419.47;4976338;28;98030;-70
2021/12/20 07:03:47;;;;;;;;;;;;;;;11.09;52.58;101412.44;4964785;28;98785;-70
2021/12/20 07:06:13;;;;;;;;;;;;;;;11.10;52.58;101416.75;4962853;28;98411;-60
2021/12/20 07:08:39;;;;;;;;;;;;;;;11.08;52.40;101417.00;4959385;28;127809;-70
2021/12/20 07:11:08;;;;;;;;;;;;;;;11.09;52.24;101426.75;4964017;28;117162;-70
2021/12/20 07:13:34;;;;;;;;;;;;;;;11.10;52.74;101424.84;4964010;28;98814;-70
2021/12/20 07:16:00;;;;;;;;;;;;;;;11.10;52.24;101430.25;4962328;28;123474;-61
2021/12/20 07:18:26;;;;;;;;;;;;;;;11.10;52.31;101425.66;4962183;28;103073;-70
2021/12/20 07:20:52;;;;;;;;;;;;;;;11.11;52.59;101434.56;4970864;28;116887;-70
2021/12/20 07:23:18;;;;;;;;;;;;;;;11.12;52.58;101433.50;4964936;28;127319;-70
2021/12/20 07:25:44;;;;;;;;;;;;;;;11.13;52.38;101437.84;4967477;28;128071;-70
2021/12/20 07:28:10;;;;;;;;;;;;;;;11.13;52.76;101437.84;4964145;28;98323;-61
2021/12/20 07:30:36;;;;;;;;;;;;;;;11.14;52.09;101432.19;4964012;28;98138;-70
2021/12/20 07:33:02;;;;;;;;;;;;;;;11.16;52.19;101431.94;4963972;28;98755;-70
2021/12/20 07:35:28;;;;;;;;;;;;;;;11.18;52.18;101441.44;4967995;28;98384;-61
2021/12/20 07:37:56;;;;;;;;;;;;;;;11.19;52.39;101440.38;4977728;28;97959;-61
2021/12/20 07:40:22;;;;;;;;;;;;;;;11.23;52.17;101457.69;4958853;28;98275;-61
2021/12/20 07:42:48;;;;;;;;;;;;;;;11.25;52.09;101450.19;4959355;28;99150;-61
2021/12/20 07:45:14;;;;;;;;;;;;;;;11.33;51.93;101451.66;4958397;28;127411;-61
2021/12/20 07:47:40;;;;;;;;;;;;;;;11.40;52.13;101456.88;4963480;28;97784;-61
2021/12/20 07:50:07;;;;;;;;;;;;;;;11.44;51.87;101455.31;4958730;28;105056;-61
2021/12/20 07:52:33;;;;;;;;;;;;;;;11.53;51.82;101464.59;4959530;28;98319;-61
2021/12/20 07:55:00;;;;;;;;;;;;;;;11.55;51.69;101457.91;4958380;28;99296;-61
2021/12/20 07:57:26;;;;;;;;;;;;;;;11.61;51.82;101456.06;4958110;28;98311;-61
2021/12/20 07:59:52;;;;;;;;;;;;;;;11.67;51.73;101454.25;4961406;28;99086;-61
2021/12/20 08:02:18;;;;;;;;;;;;;;;11.75;51.49;101456.50;4960758;28;128352;-61
2021/12/20 08:04:49;;;;;;;;;;;;;;;11.87;51.41;101457.25;4958734;28;114186;-61
2021/12/20 08:07:15;;;;;;;;;;;;;;;12.06;51.32;101456.91;4957458;28;98001;-61
2021/12/20 08:09:41;;;;;;;;;;;;;;;12.24;51.14;101467.38;4960311;28;97826;-61
2021/12/20 08:12:07;;;;;;;;;;;;;;;12.45;50.84;101471.91;4959164;28;128411;-61
2021/12/20 08:14:34;;;;;;;;;;;;;;;12.73;50.61;101478.97;4958152;28;118291;-61
2021/12/20 08:17:00;;;;;;;;;;;;;;;13.02;50.34;101474.06;4960168;28;98870;-61
2021/12/20 08:19:26;;;;;;;;;;;;;;;13.39;50.13;101477.84;4958213;28;117286;-61
2021/12/20 08:21:51;;;;;;;;;;;;;;;13.74;49.95;101475.31;4958133;28;128089;-60
2021/12/20 08:24:17;;;;;;;;;;;;;;;14.25;49.13;101467.38;4961926;28;128864;-61
2021/12/20 08:26:43;;;;;;;;;;;;;;;14.89;48.42;101465.28;4962130;28;127347;-61
2021/12/20 08:29:09;;;;;;;;;;;;;;;15.62;47.81;101460.28;4962299;28;115080;-70
2021/12/20 08:31:39;;;;;;;;;;;;;;;16.49;46.63;101464.50;4962554;28;119684;-70
2021/12/20 08:34:05;;;;;;;;;;;;;;;17.22;45.69;101466.38;4962644;28;97916;-70
2021/12/20 08:36:31;;;;;;;;;;;;;;;17.52;45.57;101468.75;4963946;28;107746;-61
2021/12/20 08:38:57;;;;;;;;;;;;;;;17.47;46.23;101484.38;4968902;27;104132;-70
2021/12/20 08:41:23;;;;;;;;;;;;;;;17.26;46.90;101489.22;4959881;28;126505;-61
2021/12/20 08:43:49;;;;;;;;;;;;;;;16.99;47.30;101481.56;4959010;28;120755;-69
2021/12/20 08:46:16;;;;;;;;;;;;;;;17.17;47.17;101472.66;4962061;28;127270;-61
2021/12/20 08:48:45;;;;;;;;;;;;;;;17.53;46.91;101464.13;4960250;28;98380;-70
2021/12/20 08:51:12;;;;;;;;;;;;;;;17.87;46.42;101477.66;4965143;28;97962;-61
2021/12/20 08:53:39;;;;;;;;;;;;;;;18.13;46.43;101492.59;4962085;28;120891;-61
2021/12/20 08:56:05;;;;;;;;;;;;;;;18.37;46.42;101483.53;4960743;28;98083;-70
2021/12/20 08:58:31;;;;;;;;;;;;;;;18.53;46.46;101482.19;4961466;28;98149;-70
2021/12/20 09:00:57;;;;;;;;;;;;;;;18.69;46.46;101487.41;4963332;28;109494;-70
2021/12/20 09:03:23;;;;;;;;;;;;;;;18.83;46.17;101489.13;4963370;28;118436;-70
2021/12/20 09:05:49;;;;;;;;;;;;;;;18.95;46.21;101491.41;4963673;28;97962;-61
2021/12/20 09:08:17;;;;;;;;;;;;;;;19.05;46.10;101487.66;4962026;28;115761;-71
2021/12/20 09:10:43;;;;;;;;;;;;;;;19.11;46.18;101495.50;4964046;28;98010;-61
2021/12/20 09:13:09;;;;;;;;;;;;;;;19.16;46.17;101510.97;4960130;28;109233;-61
2021/12/20 09:15:35;;;;;;;;;;;;;;;19.18;46.27;101510.66;4960065;28;127740;-61
2021/12/20 09:18:01;;;;;;;;;;;;;;;19.19;46.43;101504.09;4962896;28;97713;-61
2021/12/20 09:20:27;;;;;;;;;;;;;;;19.19;46.30;101501.38;4963275;28;98229;-70
2021/12/20 09:22:57;;;;;;;;;;;;;;;19.06;46.66;101509.25;4960226;28;110460;-70
2021/12/20 09:25:24;;;;;;;;;;;;;;;18.95;46.81;101509.72;4962070;28;98016;-61
2021/12/20 09:27:50;;;;;;;;;;;;;;;18.86;47.12;101515.03;4963502;28;98170;-61
2021/12/20 09:30:17;;;;;;;;;;;;;;;18.75;47.31;101508.94;4960944;28;112744;-70
2021/12/20 09:32:43;;;;;;;;;;;;;;;18.62;47.56;101515.91;4962099;28;101906;-70
2021/12/20 09:35:09;;;;;;;;;;;;;;;18.59;47.62;101512.97;4945003;28;97794;-70
2021/12/20 09:37:35;;;;;;;;;;;;;;;18.53;47.82;101514.97;4963068;28;97996;-70
2021/12/20 09:40:03;;;;;;;;;;;;;;;18.54;47.66;101515.75;4963017;28;99004;-61
2021/12/20 09:42:28;;;;;;;;;;;;;;;18.44;47.90;101521.38;4961252;28;98325;-59
2021/12/20 09:44:54;;;;;;;;;;;;;;;18.37;47.98;101530.75;4943245;28;128059;-67
2021/12/20 09:47:20;;;;;;;;;;;;;;;18.27;48.00;101528.13;4960816;28;115417;-67
2021/12/20 09:49:46;;;;;;;;;;;;;;;18.17;48.13;101519.28;4961241;28;98322;-58
2021/12/20 09:52:12;;;;;;;;;;;;;;;17.97;48.53;101517.63;4962541;28;98545;-58
2021/12/20 09:54:39;;;;;;;;;;;;;;;17.80;48.62;101523.53;4961449;28;127947;-67
2021/12/20 09:57:08;;;;;;;;;;;;;;;17.51;49.07;101524.38;4959184;28;97832;-58
2021/12/20 09:59:35;;;;;;;;;;;;;;;17.39;49.23;101522.03;4960137;28;98119;-58
2021/12/20 10:02:01;;;;;;;;;;;;;;;17.13;49.28;101516.03;4959601;28;115708;-58
2021/12/20 10:04:27;;;;;;;;;;;;;;;16.89;49.75;101515.13;4939532;28;117663;-67
2021/12/20 10:06:56;;;;;;;;;;;;;;;16.71;49.72;101523.97;4960243;28;117528;-67
2021/12/20 10:09:27;;;;;;;;;;;;;;;16.52;50.00;101521.09;4961944;28;98238;-67
2021/12/20 10:12:15;;;;;;;;;;;;;;;16.34;49.96;101508.94;4964375;28;99322;-67
2021/12/20 10:14:56;;;;;;;;;;;;;;;16.15;50.20;101520.47;4960659;28;97987;-58
2021/12/20 10:17:24;;;;;;;;;;;;;;;15.97;50.21;101515.66;4960810;28;97902;-68
2021/12/20 10:19:51;;;;;;;;;;;;;;;15.84;50.25;101516.25;4959375;28;98799;-60
2021/12/20 10:22:28;;;;;;;;;;;;;;;15.70;50.30;101508.66;4961785;28;97983;-60
2021/12/20 10:25:02;;;;;;;;;;;;;;;15.60;50.43;101522.25;4960268;28;98613;-60
2021/12/20 10:27:32;;;;;;;;;;;;;;;15.49;50.50;101519.84;4958823;28;98093;-69
2021/12/20 10:29:59;;;;;;;;;;;;;;;15.49;50.54;101523.38;4961900;28;98981;-61
2021/12/20 10:32:41;;;;;;;;;;;;;;;15.34;50.54;101518.78;4960083;28;99050;-69
2021/12/20 10:35:25;;;;;;;;;;;;;;;15.27;50.76;101510.06;4961231;28;98393;-70
2021/12/20 10:37:55;;;;;;;;;;;;;;;15.20;50.88;101520.41;4962471;28;97772;-69
2021/12/20 10:40:21;;;;;;;;;;;;;;;15.10;50.63;101521.22;4959980;28;118051;-60
2021/12/20 10:42:49;;;;;;;;;;;;;;;15.01;50.87;101522.84;4959565;28;127110;-70
2021/12/20 10:45:18;;;;;;;;;;;;;;;14.91;51.11;101523.66;4961575;28;98175;-60
2021/12/20 10:47:44;;;;;;;;;;;;;;;14.82;51.15;101522.59;4961015;28;97972;-60
2021/12/20 10:50:34;;;;;;;;;;;;;;;14.78;50.98;101524.22;4961259;28;128662;-69
2021/12/20 10:53:20;;;;;;;;;;;;;;;14.72;51.10;101525.28;4961557;28;98565;-69
2021/12/20 10:55:50;;;;;;;;;;;;;;;14.66;51.51;101526.38;4959160;28;99349;-60
2021/12/20 10:58:19;;;;;;;;;;;;;;;14.63;51.01;101519.56;4941749;28;98023;-60
2021/12/20 11:01:05;;;;;;;;;;;;;;;14.60;51.47;101525.53;4963501;28;98959;-69
2021/12/20 11:03:36;;;;;;;;;;;;;;;14.72;51.15;101523.38;4965721;28;98062;-69
2021/12/20 11:11:21;;;;;;;;;;;;;;;15.17;50.72;101527.22;4963734;28;97771;-69
2021/12/20 11:13:47;;;;;;;;;;;;;;;15.16;50.60;101528.28;4969016;28;128434;-69
2021/12/20 11:16:27;;;;;;;;;;;;;;;15.18;50.54;101519.88;4968030;28;97939;-70
2021/12/20 11:19:10;;;;;;;;;;;;;;;15.22;50.88;101529.91;4972975;28;97811;-69
2021/12/20 11:21:45;;;;;;;;;;;;;;;15.19;50.80;101537.78;4967650;28;121084;-69
2021/12/20 11:24:16;;;;;;;;;;;;;;;15.16;51.08;101533.72;4974117;27;98337;-69
2021/12/20 11:26:42;;;;;;;;;;;;;;;15.18;50.88;101531.56;4965468;28;99179;-70
2021/12/20 11:29:09;;;;;;;;;;;;;;;15.23;51.10;101533.44;4964519;28;116132;-69
2021/12/20 11:31:37;;;;;;;;;;;;;;;15.23;50.70;101528.00;4982071;28;97908;-69
2021/12/20 11:34:03;;;;;;;;;;;;;;;15.26;51.10;101529.38;4968502;28;97782;-69
2021/12/20 11:36:29;;;;;;;;;;;;;;;15.26;50.85;101527.47;4968726;28;98106;-69
2021/12/20 11:38:58;;;;;;;;;;;;;;;15.32;50.81;101525.56;4967351;28;97866;-69
2021/12/20 11:41:27;;;;;;;;;;;;;;;15.35;51.05;101527.72;4967139;28;98829;-69
2021/12/20 11:43:54;;;;;;;;;;;;;;;15.27;51.25;101529.09;4965247;28;98064;-69
2021/12/20 11:46:22;;;;;;;;;;;;;;;15.21;51.27;101538.34;4974737;28;98240;-69
2021/12/20 11:48:49;;;;;;;;;;;;;;;15.16;51.19;101528.28;4965833;28;108749;-70
2021/12/20 11:51:15;;;;;;;;;;;;;;;15.06;51.29;101539.16;4948394;28;120105;-69
2021/12/20 11:53:41;;;;;;;;;;;;;;;15.02;51.38;101527.22;4968798;28;127573;-69
2021/12/20 11:56:07;;;;;;;;;;;;;;;14.93;51.72;101539.66;4966370;28;127640;-69
2021/12/20 11:58:33;;;;;;;;;;;;;;;15.01;51.45;101539.13;4969709;28;98169;-69
2021/12/20 12:01:03;;;;;;;;;;;;;;;15.04;51.15;101537.78;4967604;28;98646;-69
2021/12/20 12:03:32;;;;;;;;;;;;;;;14.94;51.24;101547.56;4972190;28;122745;-69
2021/12/20 12:06:02;;;;;;;;;;;;;;;14.95;51.67;101532.09;4964679;28;100308;-68
2021/12/20 12:08:39;;;;;;;;;;;;;;;14.92;51.84;101538.88;4964753;28;97848;-69
2021/12/20 12:11:08;;;;;;;;;;;;;;;14.81;51.90;101539.13;4971344;28;98751;-60
2021/12/20 12:13:47;;;;;;;;;;;;;;;14.75;51.76;101532.06;4964179;28;98440;-69
2021/12/20 12:16:28;;;;;;;;;;;;;;;14.64;51.95;101532.06;4961938;28;98380;-69
2021/12/20 12:18:54;;;;;;;;;;;;;;;14.55;51.75;101530.97;4970430;27;97876;-68
2021/12/20 12:21:33;;;;;;;;;;;;;;;14.47;52.01;101526.03;4963269;28;121962;-60
2021/12/20 12:23:59;;;;;;;;;;;;;;;14.46;52.23;101532.50;4963731;28;98957;-69
2021/12/20 12:26:29;;;;;;;;;;;;;;;14.56;51.79;101527.16;4980678;28;98605;-69
2021/12/20 12:28:56;;;;;;;;;;;;;;;14.56;51.87;101524.44;4964683;27;97988;-69
2021/12/20 12:31:22;;;;;;;;;;;;;;;14.57;51.45;101525.25;4964274;28;98867;-69
2021/12/20 12:33:48;;;;;;;;;;;;;;;14.58;51.95;101524.16;4963471;27;121859;-60
2021/12/20 12:36:23;;;;;;;;;;;;;;;14.58;51.65;101516.84;4942286;28;120102;-69
2021/12/20 12:38:54;;;;;;;;;;;;;;;14.64;51.87;101518.47;4962931;28;97950;-69
2021/12/20 12:41:24;;;;;;;;;;;;;;;14.69;51.86;101523.91;4962658;28;98131;-69
2021/12/20 12:44:05;;;;;;;;;;;;;;;14.79;51.35;101525.03;4968852;27;99056;-60
2021/12/20 12:46:41;;;;;;;;;;;;;;;14.89;51.62;101525.00;4962260;28;98543;-69
2021/12/20 12:49:22;;;;;;;;;;;;;;;14.97;51.19;101519.88;4963323;27;98145;-60
2021/12/20 12:51:49;;;;;;;;;;;;;;;15.03;51.60;101525.31;4963702;28;98144;-68
2021/12/20 12:54:33;;;;;;;;;;;;;;;15.04;51.39;101529.63;4964294;28;115048;-60